createdAt,value
2019-02-14T00:00:18.895Z,3.70
2019-02-14T00:03:11.616Z,3.70
2019-02-14T00:09:36.089Z,3.79
2019-02-14T00:12:16.761Z,3.79
2019-02-14T00:15:15.509Z,3.96
2019-02-14T00:17:59.452Z,3.97
2019-02-14T00:20:55.577Z,3.89
2019-02-14T00:23:35.832Z,3.90
2019-02-14T00:26:09.684Z,3.79
2019-02-14T00:28:42.089Z,3.79
2019-02-14T00:31:12.736Z,3.97
2019-02-14T00:33:42.530Z,3.97
2019-02-14T00:36:12.553Z,3.95
2019-02-14T00:38:45.874Z,3.88
2019-02-14T00:41:43.559Z,3.67
2019-02-14T00:44:46.056Z,3.74
2019-02-14T00:47:21.291Z,3.77
2019-02-14T00:49:53.187Z,3.77
2019-02-14T00:52:24.594Z,3.68
2019-02-14T00:54:54.570Z,3.74
2019-02-14T00:58:07.921Z,3.73
2019-02-14T01:01:11.885Z,3.61
2019-02-14T01:03:45.780Z,3.98
2019-02-14T01:06:15.903Z,3.98
2019-02-14T01:08:46.022Z,4.01
2019-02-14T01:11:17.626Z,4.03
2019-02-14T01:13:59.331Z,4.02
2019-02-14T01:16:35.663Z,4.04
2019-02-14T01:19:06.210Z,4.04
2019-02-14T01:21:43.502Z,4.09
2019-02-14T01:24:36.383Z,4.09
2019-02-14T01:27:38.762Z,4.12
2019-02-14T01:30:18.293Z,4.10
2019-02-14T01:32:57.084Z,4.08
2019-02-14T01:35:41.676Z,4.08
2019-02-14T01:38:27.341Z,4.08
2019-02-14T01:41:13.083Z,4.00
2019-02-14T01:43:44.575Z,4.11
2019-02-14T01:46:41.149Z,4.09
2019-02-14T01:49:13.532Z,4.19
2019-02-14T01:51:53.944Z,4.39
2019-02-14T01:54:55.270Z,4.39
2019-02-14T01:57:40.301Z,4.42
2019-02-14T02:00:28.335Z,4.42
2019-02-14T02:03:37.450Z,4.53
2019-02-14T02:06:06.101Z,4.60
2019-02-14T02:08:48.405Z,4.60
2019-02-14T02:12:02.060Z,4.60
2019-02-14T02:15:08.719Z,4.45
2019-02-14T02:18:08.681Z,4.32
2019-02-14T02:21:07.001Z,4.20
2019-02-14T02:23:41.159Z,4.15
2019-02-14T02:26:21.603Z,4.13
2019-02-14T02:29:40.275Z,4.11
2019-02-14T02:32:39.945Z,3.98
2019-02-14T02:36:00.331Z,3.88
2019-02-14T02:38:54.835Z,3.88
2019-02-14T02:41:36.865Z,3.89
2019-02-14T02:44:53.016Z,3.88
2019-02-14T02:48:05.886Z,3.76
2019-02-14T02:51:13.538Z,3.75
2019-02-14T02:53:51.360Z,3.61
2019-02-14T02:56:55.876Z,3.61
2019-02-14T02:59:55.484Z,3.74
2019-02-14T03:02:45.546Z,3.65
2019-02-14T03:05:29.985Z,3.65
2019-02-14T03:08:16.309Z,3.69
2019-02-14T03:10:59.317Z,3.65
2019-02-14T03:13:37.231Z,3.83
2019-02-14T03:16:34.762Z,3.88
2019-02-14T03:19:09.949Z,3.88
2019-02-14T03:22:02.924Z,3.78
2019-02-14T03:24:52.197Z,3.78
2019-02-14T03:27:30.436Z,3.78
2019-02-14T03:30:12.365Z,4.11
2019-02-14T03:32:55.841Z,4.11
2019-02-14T03:35:27.417Z,4.22
2019-02-14T03:37:58.364Z,4.11
2019-02-14T03:40:29.100Z,4.21
2019-02-14T03:42:59.220Z,4.24
2019-02-14T03:45:31.907Z,4.41
2019-02-14T03:48:03.449Z,4.45
2019-02-14T03:50:33.408Z,4.59
2019-02-14T03:53:03.803Z,4.66
2019-02-14T03:55:36.789Z,4.51
2019-02-14T03:58:06.703Z,4.55
2019-02-14T04:00:38.696Z,4.55
2019-02-14T04:03:12.812Z,4.49
2019-02-14T04:05:44.021Z,4.77
2019-02-14T04:08:14.053Z,4.77
2019-02-14T04:10:43.865Z,4.69
2019-02-14T04:13:13.784Z,4.53
2019-02-14T04:15:46.405Z,4.40
2019-02-14T04:18:18.471Z,4.62
2019-02-14T04:20:48.546Z,4.55
2019-02-14T04:23:39.448Z,4.62
2019-02-14T04:26:28.863Z,4.62
2019-02-14T04:29:15.842Z,4.72
2019-02-14T04:32:06.173Z,4.59
2019-02-14T04:34:52.866Z,4.60
2019-02-14T04:37:45.989Z,4.49
2019-02-14T04:40:35.624Z,4.63
2019-02-14T04:43:25.351Z,4.81
2019-02-14T04:46:13.257Z,4.91
2019-02-14T04:49:06.389Z,4.75
2019-02-14T04:51:45.814Z,4.45
2019-02-14T04:54:39.760Z,4.47
2019-02-14T04:57:35.466Z,4.43
2019-02-14T05:00:49.581Z,4.28
2019-02-14T05:03:28.185Z,4.13
2019-02-14T05:06:02.142Z,4.06
2019-02-14T05:08:47.085Z,4.06
2019-02-14T05:11:59.888Z,4.02
2019-02-14T05:14:55.614Z,4.02
2019-02-14T05:17:52.879Z,4.00
2019-02-14T05:20:44.993Z,4.00
2019-02-14T05:23:41.962Z,3.90
2019-02-14T05:26:39.578Z,3.73
2019-02-14T05:29:25.461Z,3.73
2019-02-14T05:32:22.826Z,3.67
2019-02-14T05:35:18.771Z,3.64
2019-02-14T05:38:08.175Z,3.74
2019-02-14T05:40:52.741Z,3.74
2019-02-14T05:43:33.944Z,3.77
2019-02-14T05:46:26.171Z,3.82
2019-02-14T05:49:19.314Z,3.82
2019-02-14T05:52:08.396Z,3.79
2019-02-14T05:54:55.911Z,3.71
2019-02-14T05:57:54.233Z,3.64
2019-02-14T06:00:35.981Z,3.64
2019-02-14T06:03:29.760Z,3.69
2019-02-14T06:06:20.072Z,3.64
2019-02-14T06:09:07.925Z,3.54
2019-02-14T06:11:43.868Z,3.60
2019-02-14T06:14:20.881Z,3.65
2019-02-14T06:16:55.669Z,3.65
2019-02-14T06:19:27.600Z,3.62
2019-02-14T06:22:27.863Z,3.54
2019-02-14T06:25:06.881Z,3.43
2019-02-14T06:27:37.873Z,4.10
2019-02-14T06:30:21.729Z,4.10
2019-02-14T06:33:04.169Z,4.60
2019-02-14T06:35:34.512Z,4.85
2019-02-14T06:38:09.167Z,5.18
2019-02-14T06:40:46.612Z,5.65
2019-02-14T06:43:16.488Z,6.02
2019-02-14T06:45:46.569Z,6.32
2019-02-14T06:48:21.453Z,6.81
2019-02-14T06:50:56.934Z,6.81
2019-02-14T06:53:27.939Z,7.04
2019-02-14T06:56:15.738Z,7.55
2019-02-14T06:58:48.019Z,8.03
2019-02-14T07:01:20.162Z,8.51
2019-02-14T07:03:51.147Z,9.06
2019-02-14T07:06:42.577Z,9.78
2019-02-14T07:09:17.316Z,10.02
2019-02-14T07:11:55.997Z,10.39
2019-02-14T07:14:35.220Z,10.78
2019-02-14T07:17:18.942Z,11.06
2019-02-14T07:20:10.768Z,11.19
2019-02-14T07:23:07.442Z,11.52
2019-02-14T07:25:42.925Z,11.71
2019-02-14T07:28:37.165Z,11.90
2019-02-14T07:31:15.817Z,11.70
2019-02-14T07:33:52.889Z,12.00
2019-02-14T07:36:37.804Z,11.88
2019-02-14T07:39:11.163Z,11.97
2019-02-14T07:41:45.845Z,12.31
2019-02-14T07:44:19.264Z,12.36
2019-02-14T07:46:57.409Z,12.63
2019-02-14T07:49:33.391Z,12.86
2019-02-14T07:52:11.646Z,12.90
2019-02-14T07:54:44.860Z,13.30
2019-02-14T07:57:39.169Z,13.44
2019-02-14T08:00:55.194Z,13.48
2019-02-14T08:03:44.794Z,14.02
2019-02-14T08:06:37.930Z,14.02
2019-02-14T08:09:33.115Z,14.06
2019-02-14T08:12:44.627Z,14.27
2019-02-14T08:15:50.845Z,15.11
2019-02-14T08:18:27.868Z,14.57
2019-02-14T08:21:03.180Z,14.44
2019-02-14T08:23:33.871Z,15.12
2019-02-14T08:29:37.656Z,15.19
2019-02-14T08:32:41.696Z,15.44
2019-02-14T08:35:43.695Z,16.15
2019-02-14T08:38:42.316Z,16.16
2019-02-14T08:41:48.184Z,15.97
2019-02-14T08:44:24.858Z,16.47
2019-02-14T08:46:59.806Z,16.58
2019-02-14T08:50:01.604Z,16.65
2019-02-14T08:52:56.706Z,16.89
2019-02-14T08:58:34.747Z,16.03
2019-02-14T09:01:09.099Z,16.45
2019-02-14T09:03:56.222Z,16.10
2019-02-14T09:06:52.150Z,16.03
2019-02-14T09:09:41.939Z,16.50
2019-02-14T09:12:31.024Z,16.53
2019-02-14T09:15:37.419Z,16.77
2019-02-14T09:18:32.171Z,17.11
2019-02-14T09:21:26.278Z,17.40
2019-02-14T09:23:59.273Z,17.94
2019-02-14T09:26:58.677Z,18.06
2019-02-14T09:29:59.753Z,17.92
2019-02-14T09:32:58.136Z,17.03
2019-02-14T09:36:06.650Z,16.98
2019-02-14T09:39:16.156Z,17.15
2019-02-14T09:42:18.690Z,17.64
2019-02-14T09:45:02.271Z,17.31
2019-02-14T09:47:59.807Z,17.31
2019-02-14T09:50:56.985Z,16.64
2019-02-14T09:53:31.590Z,17.31
2019-02-14T09:56:16.502Z,17.14
2019-02-14T09:58:55.518Z,16.74
2019-02-14T10:01:43.996Z,16.63
2019-02-14T10:04:38.373Z,17.66
2019-02-14T10:07:39.292Z,18.04
2019-02-14T10:10:36.167Z,17.94
2019-02-14T10:13:26.086Z,17.68
2019-02-14T10:16:28.967Z,18.01
2019-02-14T10:19:35.717Z,18.04
2019-02-14T10:22:32.179Z,18.31
2019-02-14T10:25:21.669Z,18.75
2019-02-14T10:28:29.108Z,18.50
2019-02-14T10:31:20.860Z,19.24
2019-02-14T10:34:04.795Z,18.99
2019-02-14T10:36:47.340Z,19.20
2019-02-14T10:39:49.869Z,19.79
2019-02-14T10:42:59.319Z,18.83
2019-02-14T10:45:50.379Z,18.73
2019-02-14T10:48:45.621Z,19.03
2019-02-14T10:52:07.187Z,19.59
2019-02-14T10:54:59.505Z,18.93
2019-02-14T11:00:40.268Z,19.70
2019-02-14T11:03:14.809Z,20.05
2019-02-14T11:06:16.063Z,20.86
2019-02-14T11:09:24.073Z,21.33
2019-02-14T11:12:26.774Z,21.31
2019-02-14T11:15:10.334Z,21.25
2019-02-14T11:18:15.612Z,20.96
2019-02-14T11:20:53.106Z,21.29
2019-02-14T11:23:28.616Z,21.12
2019-02-14T11:26:19.196Z,20.94
2019-02-14T11:29:17.491Z,21.16
2019-02-14T11:32:22.112Z,21.43
2019-02-14T11:34:54.866Z,21.11
2019-02-14T11:37:39.240Z,21.38
2019-02-14T11:40:33.443Z,20.58
2019-02-14T11:43:19.687Z,20.76
2019-02-14T11:46:06.097Z,21.22
2019-02-14T11:49:00.355Z,21.22
2019-02-14T11:51:36.324Z,20.61
2019-02-14T11:54:30.111Z,19.83
2019-02-14T11:57:37.433Z,19.81
2019-02-14T12:00:38.443Z,19.88
2019-02-14T12:03:38.888Z,20.17
2019-02-14T12:06:41.952Z,19.94
2019-02-14T12:09:45.156Z,18.39
2019-02-14T12:12:44.009Z,18.52
2019-02-14T12:15:19.488Z,19.67
2019-02-14T12:18:18.108Z,20.27
2019-02-14T12:21:12.201Z,20.69
2019-02-14T12:24:06.842Z,21.01
2019-02-14T12:27:11.065Z,21.22
2019-02-14T12:29:47.046Z,20.74
2019-02-14T12:32:19.373Z,21.14
2019-02-14T12:35:11.064Z,20.35
2019-02-14T12:38:13.383Z,19.91
2019-02-14T12:40:59.140Z,20.28
2019-02-14T12:43:50.798Z,20.54
2019-02-14T12:46:52.233Z,20.85
2019-02-14T12:49:45.008Z,21.16
2019-02-14T12:52:48.762Z,20.82
2019-02-14T12:55:39.026Z,20.59
2019-02-14T12:58:19.489Z,21.56
2019-02-14T13:01:23.958Z,21.35
2019-02-14T13:04:10.046Z,21.38
2019-02-14T13:06:44.637Z,21.82
2019-02-14T13:09:20.084Z,21.79
2019-02-14T13:12:04.949Z,21.81
2019-02-14T13:15:14.241Z,21.94
2019-02-14T13:18:14.425Z,21.60
2019-02-14T13:20:59.761Z,21.82
2019-02-14T13:23:56.885Z,21.92
2019-02-14T13:26:56.748Z,20.54
2019-02-14T13:29:53.930Z,21.45
2019-02-14T13:32:58.019Z,22.32
2019-02-14T13:35:56.559Z,21.78
2019-02-14T13:38:39.959Z,21.38
2019-02-14T13:41:35.883Z,21.88
2019-02-14T13:44:11.365Z,22.10
2019-02-14T13:47:04.435Z,21.94
2019-02-14T13:50:02.099Z,21.00
2019-02-14T13:52:54.222Z,21.45
2019-02-14T13:55:33.472Z,21.63
2019-02-14T13:58:30.273Z,21.28
2019-02-14T14:01:32.859Z,20.84
2019-02-14T14:04:21.158Z,21.04
2019-02-14T14:07:26.407Z,21.14
2019-02-14T14:10:11.851Z,21.25
2019-02-14T14:13:12.167Z,20.30
2019-02-14T14:15:48.237Z,20.71
2019-02-14T14:18:27.605Z,21.04
2019-02-14T14:21:25.593Z,21.28
2019-02-14T14:24:33.921Z,20.95
2019-02-14T14:27:31.238Z,20.90
2019-02-14T14:30:31.934Z,20.24
2019-02-14T14:33:23.466Z,19.81
2019-02-14T14:36:15.242Z,19.61
2019-02-14T14:38:48.580Z,19.65
2019-02-14T14:41:39.290Z,18.82
2019-02-14T14:44:20.214Z,17.73
2019-02-14T14:47:09.109Z,17.01
2019-02-14T14:49:47.983Z,16.69
2019-02-14T14:52:32.400Z,16.26
2019-02-14T14:55:05.162Z,16.11
2019-02-14T14:57:50.861Z,15.76
2019-02-14T15:00:27.092Z,15.55
2019-02-14T15:03:28.501Z,15.44
2019-02-14T15:06:22.739Z,15.28
2019-02-14T15:09:15.027Z,15.17
2019-02-14T15:12:12.085Z,15.21
2019-02-14T15:15:02.585Z,15.35
2019-02-14T15:17:57.570Z,15.31
2019-02-14T15:20:29.444Z,15.15
2019-02-14T15:23:07.543Z,15.38
2019-02-14T15:25:46.554Z,15.29
2019-02-14T15:28:17.189Z,15.25
2019-02-14T15:30:47.629Z,14.91
2019-02-14T15:33:21.639Z,14.83
2019-02-14T15:36:21.801Z,14.98
2019-02-14T15:39:26.925Z,15.10
2019-02-14T15:42:54.902Z,15.03
2019-02-14T15:46:03.464Z,15.30
2019-02-14T15:52:13.056Z,14.67
2019-02-14T15:55:06.945Z,14.58
2019-02-14T15:57:52.924Z,14.46
2019-02-14T16:00:39.954Z,14.38
2019-02-14T16:03:22.873Z,14.72
2019-02-14T16:06:07.759Z,14.51
2019-02-14T16:09:05.457Z,14.48
2019-02-14T16:12:01.425Z,14.37
2019-02-14T16:14:58.241Z,14.04
2019-02-14T16:17:52.602Z,14.10
2019-02-14T16:20:29.480Z,13.85
2019-02-14T16:23:06.416Z,13.52
2019-02-14T16:25:58.898Z,13.40
2019-02-14T16:28:50.613Z,13.15
2019-02-14T16:31:28.366Z,12.96
2019-02-14T16:34:38.945Z,12.85
2019-02-14T16:37:32.173Z,12.93
2019-02-14T16:40:27.808Z,13.45
2019-02-14T16:43:12.038Z,13.19
2019-02-14T16:45:54.153Z,13.32
2019-02-14T16:48:33.544Z,12.97
2019-02-14T16:51:05.101Z,12.83
2019-02-14T16:53:44.188Z,12.84
2019-02-14T16:56:31.582Z,12.97
2019-02-14T16:59:19.450Z,13.12
2019-02-14T17:01:55.069Z,13.22
2019-02-14T17:04:46.757Z,13.24
2019-02-14T17:07:56.114Z,13.04
2019-02-14T17:10:43.858Z,12.94
2019-02-14T17:13:35.243Z,12.86
2019-02-14T17:16:16.390Z,12.65
2019-02-14T17:18:54.881Z,12.48
2019-02-14T17:21:49.631Z,12.56
2019-02-14T17:24:32.710Z,12.58
2019-02-14T17:27:23.277Z,12.30
2019-02-14T17:30:00.517Z,12.24
2019-02-14T17:32:37.065Z,12.20
2019-02-14T17:35:16.311Z,12.09
2019-02-14T17:37:53.667Z,12.17
2019-02-14T17:40:30.873Z,12.30
2019-02-14T17:43:04.166Z,12.37
2019-02-14T17:45:36.922Z,12.39
2019-02-14T17:48:17.000Z,12.38
2019-02-14T17:50:50.647Z,12.45
2019-02-14T17:53:25.051Z,12.45
2019-02-14T17:55:59.256Z,12.30
2019-02-14T17:58:36.114Z,12.25
2019-02-14T18:01:12.365Z,12.03
2019-02-14T18:03:49.825Z,12.01
2019-02-14T18:06:27.067Z,11.85
2019-02-14T18:08:57.722Z,11.77
2019-02-14T18:11:34.144Z,11.81
2019-02-14T18:14:11.573Z,11.80
2019-02-14T18:16:49.984Z,11.75
2019-02-14T18:19:22.729Z,11.91
2019-02-14T18:22:04.843Z,11.87
2019-02-14T18:24:41.832Z,11.84
2019-02-14T18:27:25.096Z,11.63
2019-02-14T18:30:06.391Z,11.48
2019-02-14T18:32:46.766Z,11.22
2019-02-14T18:35:20.806Z,11.17
2019-02-14T18:37:56.146Z,11.03
2019-02-14T18:40:33.831Z,10.73
2019-02-14T18:43:09.824Z,10.94
2019-02-14T18:45:45.848Z,11.19
2019-02-14T18:48:22.777Z,10.98
2019-02-14T18:50:56.379Z,10.76
2019-02-14T18:53:35.101Z,10.51
2019-02-14T18:56:16.634Z,10.16
2019-02-14T18:58:57.200Z,10.11
2019-02-14T19:01:32.490Z,10.13
2019-02-14T19:04:05.910Z,10.17
2019-02-14T19:06:43.349Z,10.29
2019-02-14T19:09:20.156Z,10.53
2019-02-14T19:12:01.276Z,10.80
2019-02-14T19:14:39.092Z,10.86
2019-02-14T19:17:17.842Z,10.81
2019-02-14T19:19:58.080Z,10.70
2019-02-14T19:22:44.756Z,10.69
2019-02-14T19:25:24.497Z,10.61
2019-02-14T19:28:09.964Z,10.63
2019-02-14T19:30:56.674Z,10.61
2019-02-14T19:33:33.460Z,10.58
2019-02-14T19:36:08.879Z,10.48
2019-02-14T19:38:53.830Z,10.37
2019-02-14T19:41:27.612Z,10.18
2019-02-14T19:44:05.849Z,10.09
2019-02-14T19:46:50.054Z,9.99
2019-02-14T19:49:32.234Z,9.80
2019-02-14T19:52:14.834Z,9.79
2019-02-14T19:55:00.772Z,9.73
2019-02-14T19:57:38.553Z,9.77
2019-02-14T20:00:14.699Z,9.88
2019-02-14T20:02:54.387Z,9.92
2019-02-14T20:05:37.078Z,9.76
2019-02-14T20:08:20.272Z,9.48
2019-02-14T20:10:55.175Z,9.39
2019-02-14T20:13:49.021Z,9.34
2019-02-14T20:16:23.308Z,9.31
2019-02-14T20:19:01.770Z,9.26
2019-02-14T20:21:42.918Z,9.21
2019-02-14T20:24:32.367Z,9.07
2019-02-14T20:27:19.484Z,9.15
2019-02-14T20:30:01.774Z,9.24
2019-02-14T20:32:48.003Z,9.22
2019-02-14T20:35:25.365Z,9.24
2019-02-14T20:38:01.260Z,9.14
2019-02-14T20:40:37.767Z,9.09
2019-02-14T20:43:15.595Z,9.25
2019-02-14T20:45:53.085Z,9.32
2019-02-14T20:48:33.487Z,9.25
2019-02-14T20:51:17.863Z,9.01
2019-02-14T20:53:59.685Z,9.21
2019-02-14T20:56:39.494Z,9.36
2019-02-14T20:59:20.090Z,9.31
2019-02-14T21:01:58.791Z,9.30
2019-02-14T21:04:40.288Z,9.20
2019-02-14T21:07:27.011Z,9.18
2019-02-14T21:10:10.393Z,9.24
2019-02-14T21:12:48.029Z,9.16
2019-02-14T21:15:29.260Z,9.11
2019-02-14T21:18:10.018Z,9.23
2019-02-14T21:20:47.423Z,9.11
2019-02-14T21:23:26.511Z,9.16
2019-02-14T21:26:06.740Z,9.02
2019-02-14T21:28:49.113Z,8.33
2019-02-14T21:31:32.978Z,7.84
2019-02-14T21:34:16.644Z,7.69
2019-02-14T21:36:51.172Z,7.83
2019-02-14T21:39:26.094Z,8.10
2019-02-14T21:42:20.884Z,8.23
2019-02-14T21:44:57.742Z,8.26
2019-02-14T21:47:39.842Z,8.13
2019-02-14T21:50:22.541Z,8.14
2019-02-14T21:53:05.116Z,8.59
2019-02-14T21:55:48.599Z,8.57
2019-02-14T21:58:28.753Z,8.36
2019-02-14T22:01:10.738Z,8.32
2019-02-14T22:04:00.538Z,8.73
2019-02-14T22:06:49.865Z,8.72
2019-02-14T22:09:30.322Z,8.54
2019-02-14T22:12:39.135Z,8.29
2019-02-14T22:14:59.628Z,8.46
2019-02-14T22:17:47.521Z,8.52
2019-02-14T22:20:31.701Z,8.52
2019-02-14T22:23:34.348Z,8.51
2019-02-14T22:26:36.887Z,8.52
2019-02-14T22:29:32.086Z,8.48
2019-02-14T22:38:49.881Z,8.43
2019-02-14T22:41:30.840Z,8.59
2019-02-14T22:44:15.505Z,8.46
2019-02-14T22:47:27.910Z,8.80
2019-02-14T22:50:54.115Z,8.78
2019-02-14T22:53:54.896Z,8.76
2019-02-14T22:57:00.566Z,8.77
2019-02-14T23:00:00.415Z,8.76
2019-02-14T23:03:00.348Z,8.64
2019-02-14T23:06:11.297Z,8.51
2019-02-14T23:09:23.422Z,8.63
2019-02-14T23:12:29.105Z,8.56
2019-02-14T23:15:18.934Z,8.45
2019-02-14T23:18:18.579Z,8.47
2019-02-14T23:21:18.186Z,8.58
2019-02-14T23:30:25.320Z,9.14
2019-02-14T23:33:35.368Z,9.22
2019-02-14T23:39:21.912Z,9.18
2019-02-14T23:45:10.303Z,9.14
2019-02-14T23:48:07.468Z,8.92
2019-02-14T23:51:16.053Z,8.70
2019-02-14T23:54:17.054Z,8.72
2019-02-14T23:57:18.202Z,8.68
